Time,TemperatureF,DewpointF,PressureIn,WindDirection,WindDirectionDegrees,WindSpeedMPH,WindSpeedGustMPH,Humidity,HourlyPrecipIn,Conditions,Clouds,dailyrainin,SoftwareType,DateUTC
2013-09-20 00:01:00,77.0,70.4,29.88,SW,225,2.0,3.4,80,0.00,,,0.00,WUHU216HW,2013-09-20 05:01:00,
2013-09-20 00:06:00,76.9,70.2,29.88,South,180,1.3,3.4,80,0.00,,,0.00,WUHU216HW,2013-09-20 05:06:00,
2013-09-20 00:11:00,76.9,70.6,29.88,SSW,203,2.0,5.1,81,0.00,,,0.00,WUHU216HW,2013-09-20 05:11:00,
2013-09-20 00:16:00,76.9,70.2,29.88,SSW,203,1.6,5.1,80,0.00,,,0.00,WUHU216HW,2013-09-20 05:16:00,
2013-09-20 00:21:00,76.9,70.2,29.88,SW,222,1.5,4.0,80,0.00,,,0.00,WUHU216HW,2013-09-20 05:21:00,
2013-09-20 00:26:00,76.7,70.4,29.88,SSW,201,1.2,4.0,81,0.00,,,0.00,WUHU216HW,2013-09-20 05:26:00,
2013-09-20 00:31:00,76.7,70.4,29.88,WSW,248,4.0,4.0,81,0.00,,,0.00,WUHU216HW,2013-09-20 05:31:00,
2013-09-20 00:36:00,76.7,70.4,29.88,SSW,205,2.0,4.0,81,0.00,,,0.00,WUHU216HW,2013-09-20 05:36:00,
2013-09-20 00:41:00,76.7,70.4,29.88,SSW,207,2.4,4.0,81,0.00,,,0.00,WUHU216HW,2013-09-20 05:41:00,
2013-09-20 00:46:00,76.7,70.4,29.88,SSW,198,1.9,4.0,81,0.00,,,0.00,WUHU216HW,2013-09-20 05:46:00,
2013-09-20 00:51:00,76.5,70.3,29.88,WSW,248,1.6,3.1,81,0.00,,,0.00,WUHU216HW,2013-09-20 05:51:00,
2013-09-20 00:56:00,76.5,70.3,29.88,SSW,197,1.6,3.4,81,0.00,,,0.00,WUHU216HW,2013-09-20 05:56:00,
2013-09-20 01:01:00,76.3,70.1,29.88,SSW,203,4.0,4.0,81,0.00,,,0.00,WUHU216HW,2013-09-20 06:01:00,
2013-09-20 01:06:00,76.3,70.5,29.88,SSW,203,2.0,4.0,82,0.00,,,0.00,WUHU216HW,2013-09-20 06:06:00,
2013-09-20 01:11:00,76.3,70.1,29.88,SSW,199,1.6,4.0,81,0.00,,,0.00,WUHU216HW,2013-09-20 06:11:00,
2013-09-20 01:16:00,76.1,70.3,29.88,WSW,248,1.6,2.5,82,0.00,,,0.00,WUHU216HW,2013-09-20 06:16:00,
2013-09-20 01:21:00,76.1,70.3,29.87,SSW,201,2.0,2.5,82,0.00,,,0.00,WUHU216HW,2013-09-20 06:21:00,
2013-09-20 01:26:00,76.1,70.3,29.87,East,90,1.6,2.2,82,0.00,,,0.00,WUHU216HW,2013-09-20 06:26:00,
2013-09-20 01:31:00,76.0,70.1,29.87,SSW,207,1.5,3.8,82,0.00,,,0.00,WUHU216HW,2013-09-20 06:31:00,
2013-09-20 01:36:00,76.0,70.1,29.87,SSW,203,0.7,3.8,82,0.00,,,0.00,WUHU216HW,2013-09-20 06:36:00,
2013-09-20 01:41:00,76.0,70.5,29.87,SSW,192,1.2,2.5,83,0.00,,,0.00,WUHU216HW,2013-09-20 06:41:00,
2013-09-20 01:46:00,76.0,70.1,29.87,SSW,208,1.2,2.5,82,0.00,,,0.00,WUHU216HW,2013-09-20 06:46:00,
2013-09-20 01:51:00,76.0,70.1,29.87,SW,225,1.6,4.0,82,0.00,,,0.00,WUHU216HW,2013-09-20 06:51:00,
2013-09-20 01:56:00,76.0,70.1,29.87,South,180,1.6,4.0,82,0.00,,,0.00,WUHU216HW,2013-09-20 06:56:00,
2013-09-20 02:01:00,76.0,70.1,29.87,SSW,200,1.1,4.0,82,0.00,,,0.00,WUHU216HW,2013-09-20 07:01:00,
2013-09-20 02:06:00,76.0,70.1,29.87,SSW,198,1.4,2.5,82,0.00,,,0.00,WUHU216HW,2013-09-20 07:06:00,
2013-09-20 02:11:00,76.0,70.1,29.87,SSW,203,2.2,3.1,82,0.00,,,0.00,WUHU216HW,2013-09-20 07:11:00,
2013-09-20 02:16:00,76.0,70.1,29.88,WNW,293,1.1,3.1,82,0.00,,,0.00,WUHU216HW,2013-09-20 07:16:00,
2013-09-20 02:21:00,76.0,69.8,29.88,East,90,1.6,2.7,81,0.00,,,0.00,WUHU216HW,2013-09-20 07:21:00,
2013-09-20 02:26:00,76.0,69.0,29.87,North,0,0.7,2.7,79,0.00,,,0.00,WUHU216HW,2013-09-20 07:26:00,
2013-09-20 02:31:00,76.0,69.0,29.88,NNW,348,1.4,2.5,79,0.00,,,0.00,WUHU216HW,2013-09-20 07:31:00,
2013-09-20 02:36:00,75.8,68.5,29.87,NNW,338,1.6,2.7,78,0.00,,,0.00,WUHU216HW,2013-09-20 07:36:00,
2013-09-20 02:41:00,75.2,67.6,29.89,North,0,1.1,3.4,77,0.00,,,0.00,WUHU216HW,2013-09-20 07:41:00,
2013-09-20 02:46:00,74.9,68.1,29.89,North,349,2.9,5.1,79,0.00,,,0.00,WUHU216HW,2013-09-20 07:46:00,
2013-09-20 02:51:00,74.0,67.5,29.88,NNW,339,0.6,5.1,80,0.00,,,0.00,WUHU216HW,2013-09-20 07:51:00,
2013-09-20 02:56:00,73.3,67.5,29.87,North,353,0.6,2.5,82,0.00,,,0.00,WUHU216HW,2013-09-20 07:56:00,
2013-09-20 03:01:00,72.9,67.2,29.87,NNW,335,0.7,1.3,82,0.00,,,0.00,WUHU216HW,2013-09-20 08:01:00,
2013-09-20 03:06:00,72.9,67.2,29.87,NNW,338,0.2,1.3,82,0.00,,,0.00,WUHU216HW,2013-09-20 08:06:00,
2013-09-20 03:11:00,72.7,67.2,29.86,NW,315,0.0,0.2,83,0.00,,,0.00,WUHU216HW,2013-09-20 08:11:00,
2013-09-20 03:16:00,72.5,66.8,29.86,NW,315,0.0,0.2,82,0.00,,,0.00,WUHU216HW,2013-09-20 08:16:00,
2013-09-20 03:21:00,72.2,66.7,29.86,NW,315,0.2,0.2,83,0.00,,,0.00,WUHU216HW,2013-09-20 08:21:00,
2013-09-20 03:26:00,72.0,66.9,29.86,SE,146,0.7,1.8,84,0.00,,,0.00,WUHU216HW,2013-09-20 08:26:00,
2013-09-20 03:31:00,71.8,66.7,29.85,SE,135,0.8,1.8,84,0.00,,,0.00,WUHU216HW,2013-09-20 08:31:00,
2013-09-20 03:36:00,71.6,66.5,29.85,SE,135,0.4,1.1,84,0.00,,,0.00,WUHU216HW,2013-09-20 08:36:00,
2013-09-20 03:41:00,71.5,66.3,29.85,SE,135,0.2,1.1,84,0.00,,,0.00,WUHU216HW,2013-09-20 08:41:00,
2013-09-20 03:46:00,71.3,66.2,29.85,SE,135,0.4,0.9,84,0.00,,,0.00,WUHU216HW,2013-09-20 08:46:00,
2013-09-20 03:51:00,71.1,66.0,29.85,SE,135,0.4,0.9,84,0.00,,,0.00,WUHU216HW,2013-09-20 08:51:00,
2013-09-20 03:56:00,71.1,66.3,29.85,SE,135,0.3,1.1,85,0.00,,,0.00,WUHU216HW,2013-09-20 08:56:00,
2013-09-20 04:01:00,70.9,66.2,29.85,SE,135,1.1,1.1,85,0.00,,,0.00,WUHU216HW,2013-09-20 09:01:00,
2013-09-20 04:06:00,70.9,66.2,29.85,SE,135,0.4,1.1,85,0.00,,,0.00,WUHU216HW,2013-09-20 09:06:00,
2013-09-20 04:11:00,70.7,66.0,29.85,SE,135,0.9,1.1,85,0.00,,,0.00,WUHU216HW,2013-09-20 09:11:00,
2013-09-20 04:16:00,70.7,66.3,29.85,SE,143,0.6,0.9,86,0.00,,,0.00,WUHU216HW,2013-09-20 09:16:00,
2013-09-20 04:21:00,70.6,66.2,29.84,ESE,122,0.7,1.3,86,0.00,,,0.00,WUHU216HW,2013-09-20 09:21:00,
2013-09-20 04:26:00,70.6,66.2,29.84,SE,135,0.0,1.3,86,0.00,,,0.00,WUHU216HW,2013-09-20 09:26:00,
2013-09-20 04:31:00,70.6,66.2,29.84,SE,135,0.6,0.7,86,0.00,,,0.00,WUHU216HW,2013-09-20 09:31:00,
2013-09-20 04:36:00,70.6,66.5,29.84,SW,225,0.9,1.1,87,0.00,,,0.00,WUHU216HW,2013-09-20 09:36:00,
2013-09-20 04:41:00,70.7,66.7,29.84,SW,216,0.4,1.3,87,0.00,,,0.00,WUHU216HW,2013-09-20 09:41:00,
2013-09-20 04:46:00,70.9,66.9,29.84,SSW,203,0.9,1.3,87,0.00,,,0.00,WUHU216HW,2013-09-20 09:46:00,
2013-09-20 04:51:00,70.9,67.1,29.84,SSW,203,1.8,2.7,88,0.00,,,0.00,WUHU216HW,2013-09-20 09:51:00,
2013-09-20 04:56:00,71.3,67.5,29.84,SW,216,1.7,3.6,88,0.00,,,0.00,WUHU216HW,2013-09-20 09:56:00,
2013-09-20 05:01:00,71.6,67.9,29.84,SW,225,1.8,3.6,88,0.00,,,0.00,WUHU216HW,2013-09-20 10:01:00,
2013-09-20 05:06:00,71.6,67.9,29.84,SSW,203,2.0,4.0,88,0.00,,,0.00,WUHU216HW,2013-09-20 10:06:00,
2013-09-20 05:11:00,72.0,68.2,29.84,South,188,2.4,4.9,88,0.00,,,0.00,WUHU216HW,2013-09-20 10:11:00,
2013-09-20 05:16:00,72.0,68.2,29.84,SSE,158,2.0,4.9,88,0.00,,,0.00,WUHU216HW,2013-09-20 10:16:00,
2013-09-20 05:21:00,72.2,68.4,29.84,SW,225,5.4,5.4,88,0.00,,,0.00,WUHU216HW,2013-09-20 10:21:00,
2013-09-20 05:26:00,72.2,68.4,29.85,ESE,113,3.4,5.4,88,0.00,,,0.00,WUHU216HW,2013-09-20 10:26:00,
2013-09-20 05:31:00,72.2,68.4,29.85,SSW,205,2.1,5.4,88,0.00,,,0.00,WUHU216HW,2013-09-20 10:31:00,
2013-09-20 05:36:00,72.2,68.4,29.85,West,270,1.8,4.5,88,0.00,,,0.00,WUHU216HW,2013-09-20 10:36:00,
2013-09-20 05:41:00,72.0,68.2,29.86,SSW,203,3.4,4.5,88,0.00,,,0.00,WUHU216HW,2013-09-20 10:41:00,
2013-09-20 05:46:00,71.6,67.9,29.86,South,181,2.7,4.0,88,0.00,,,0.00,WUHU216HW,2013-09-20 10:46:00,
2013-09-20 05:51:00,71.5,67.7,29.86,South,174,2.0,5.1,88,0.00,,,0.00,WUHU216HW,2013-09-20 10:51:00,
2013-09-20 05:56:00,71.1,67.3,29.86,South,179,4.2,5.1,88,0.00,,,0.00,WUHU216HW,2013-09-20 10:56:00,
2013-09-20 06:01:00,70.9,67.1,29.86,SSW,203,2.9,4.7,88,0.00,,,0.00,WUHU216HW,2013-09-20 11:01:00,
2013-09-20 06:06:00,70.7,67.0,29.87,SSW,192,2.7,4.0,88,0.00,,,0.00,WUHU216HW,2013-09-20 11:06:00,
2013-09-20 06:11:00,70.6,66.8,29.87,South,186,1.2,4.0,88,0.00,,,0.00,WUHU216HW,2013-09-20 11:11:00,
2013-09-20 06:16:00,70.2,66.4,29.87,WSW,248,1.3,2.5,88,0.00,,,0.00,WUHU216HW,2013-09-20 11:16:00,
2013-09-20 06:21:00,70.2,66.4,29.86,SSW,198,0.9,2.2,88,0.00,,,0.00,WUHU216HW,2013-09-20 11:21:00,
2013-09-20 06:26:00,70.2,66.4,29.86,South,170,0.7,3.4,88,0.00,,,0.00,WUHU216HW,2013-09-20 11:26:00,
2013-09-20 06:31:00,70.0,66.2,29.86,SSW,193,1.1,3.4,88,0.00,,,0.00,WUHU216HW,2013-09-20 11:31:00,
2013-09-20 06:36:00,70.0,66.2,29.86,SSW,203,0.9,2.9,88,0.00,,,0.00,WUHU216HW,2013-09-20 11:36:00,
2013-09-20 06:41:00,70.0,66.6,29.86,South,187,1.0,2.0,89,0.00,,,0.00,WUHU216HW,2013-09-20 11:41:00,
2013-09-20 06:46:00,70.0,66.6,29.86,South,180,2.9,2.9,89,0.00,,,0.00,WUHU216HW,2013-09-20 11:46:00,
2013-09-20 06:51:00,69.8,66.4,29.87,SSW,203,2.7,2.9,89,0.00,,,0.00,WUHU216HW,2013-09-20 11:51:00,
2013-09-20 06:56:00,69.8,66.4,29.87,South,180,1.8,2.7,89,0.00,,,0.00,WUHU216HW,2013-09-20 11:56:00,
2013-09-20 07:01:00,69.8,66.4,29.87,SSW,193,1.1,2.7,89,0.00,,,0.00,WUHU216HW,2013-09-20 12:01:00,
2013-09-20 07:06:00,69.8,66.4,29.87,South,180,1.1,2.7,89,0.00,,,0.00,WUHU216HW,2013-09-20 12:06:00,
2013-09-20 07:11:00,69.7,66.2,29.87,WNW,282,0.5,2.7,89,0.00,,,0.00,WUHU216HW,2013-09-20 12:11:00,
2013-09-20 07:16:00,69.5,66.1,29.87,South,180,2.0,2.5,89,0.00,,,0.00,WUHU216HW,2013-09-20 12:16:00,
2013-09-20 07:21:00,69.5,66.1,29.87,SSW,203,0.4,2.2,89,0.00,,,0.00,WUHU216HW,2013-09-20 12:21:00,
2013-09-20 07:26:00,69.5,66.1,29.87,South,183,0.5,2.2,89,0.00,,,0.00,WUHU216HW,2013-09-20 12:26:00,
2013-09-20 07:31:00,69.5,66.1,29.87,SSW,203,1.6,2.0,89,0.00,,,0.00,WUHU216HW,2013-09-20 12:31:00,
2013-09-20 07:36:00,69.5,66.1,29.87,SSW,203,0.5,2.0,89,0.00,,,0.00,WUHU216HW,2013-09-20 12:36:00,
2013-09-20 07:41:00,69.5,66.1,29.87,SSW,213,0.5,1.8,89,0.00,,,0.00,WUHU216HW,2013-09-20 12:41:00,
2013-09-20 07:46:00,69.5,66.4,29.87,SSW,203,0.4,1.1,90,0.00,,,0.00,WUHU216HW,2013-09-20 12:46:00,
2013-09-20 07:51:00,69.5,66.4,29.87,SSW,203,0.9,1.1,90,0.00,,,0.00,WUHU216HW,2013-09-20 12:51:00,
2013-09-20 07:56:00,69.5,66.4,29.87,SSW,203,2.5,2.5,90,0.00,,,0.00,WUHU216HW,2013-09-20 12:56:00,
2013-09-20 08:01:00,69.5,66.4,29.87,SSW,196,0.7,3.8,90,0.00,,,0.00,WUHU216HW,2013-09-20 13:01:00,
2013-09-20 08:06:00,69.5,66.4,29.87,South,182,1.5,3.8,90,0.00,,,0.00,WUHU216HW,2013-09-20 13:06:00,
2013-09-20 08:11:00,69.5,66.4,29.87,South,180,1.8,2.7,90,0.00,,,0.00,WUHU216HW,2013-09-20 13:11:00,
2013-09-20 08:16:00,69.5,66.4,29.88,South,180,2.9,2.9,90,0.00,,,0.00,WUHU216HW,2013-09-20 13:16:00,
2013-09-20 08:21:00,69.5,66.4,29.88,SW,225,1.8,2.9,90,0.00,,,0.00,WUHU216HW,2013-09-20 13:21:00,
2013-09-20 08:26:00,69.5,66.4,29.88,South,178,2.3,3.4,90,0.00,,,0.00,WUHU216HW,2013-09-20 13:26:00,
2013-09-20 08:31:00,69.5,66.4,29.88,South,180,1.3,3.4,90,0.00,,,0.00,WUHU216HW,2013-09-20 13:31:00,
2013-09-20 08:36:00,69.5,66.4,29.89,SSW,203,1.1,2.9,90,0.00,,,0.00,WUHU216HW,2013-09-20 13:36:00,
2013-09-20 08:41:00,69.7,66.6,29.88,South,181,1.6,2.7,90,0.00,,,0.00,WUHU216HW,2013-09-20 13:41:00,
2013-09-20 08:46:00,69.8,66.8,29.88,SW,222,0.9,2.7,90,0.00,,,0.00,WUHU216HW,2013-09-20 13:46:00,
2013-09-20 08:51:00,69.8,66.8,29.87,SSE,158,1.6,2.2,90,0.00,,,0.00,WUHU216HW,2013-09-20 13:51:00,
2013-09-20 08:56:00,69.8,66.8,29.87,South,180,1.4,2.7,90,0.00,,,0.00,WUHU216HW,2013-09-20 13:56:00,
2013-09-20 09:01:00,70.2,67.1,29.87,South,180,1.3,2.7,90,0.00,,,0.00,WUHU216HW,2013-09-20 14:01:00,
2013-09-20 09:06:00,70.6,67.5,29.87,South,180,1.8,2.5,90,0.00,,,0.00,WUHU216HW,2013-09-20 14:06:00,
2013-09-20 09:11:00,70.7,67.7,29.87,SSW,194,1.6,3.4,90,0.00,,,0.00,WUHU216HW,2013-09-20 14:11:00,
2013-09-20 09:16:00,70.9,67.9,29.87,South,186,1.4,3.4,90,0.00,,,0.00,WUHU216HW,2013-09-20 14:16:00,
2013-09-20 09:21:00,70.9,67.9,29.87,South,190,0.7,2.5,90,0.00,,,0.00,WUHU216HW,2013-09-20 14:21:00,
2013-09-20 09:26:00,71.1,67.7,29.88,SSW,203,2.2,2.5,89,0.00,,,0.00,WUHU216HW,2013-09-20 14:26:00,
2013-09-20 09:31:00,71.3,67.9,29.88,SSW,203,0.7,2.2,89,0.00,,,0.00,WUHU216HW,2013-09-20 14:31:00,
2013-09-20 09:36:00,71.1,67.7,29.88,South,180,0.9,2.2,89,0.00,,,0.00,WUHU216HW,2013-09-20 14:36:00,
2013-09-20 09:41:00,71.1,67.7,29.88,SSW,203,2.7,2.7,89,0.00,,,0.00,WUHU216HW,2013-09-20 14:41:00,
2013-09-20 09:46:00,71.3,67.9,29.88,SSW,199,0.9,2.7,89,0.00,,,0.00,WUHU216HW,2013-09-20 14:46:00,
2013-09-20 09:51:00,71.3,67.9,29.88,SW,217,0.7,2.7,89,0.00,,,0.00,WUHU216HW,2013-09-20 14:51:00,
2013-09-20 09:56:00,71.3,67.5,29.89,South,180,1.1,1.8,88,0.00,,,0.00,WUHU216HW,2013-09-20 14:56:00,
2013-09-20 10:01:00,71.5,68.0,29.88,South,180,1.1,3.1,89,0.00,,,0.00,WUHU216HW,2013-09-20 15:01:00,
2013-09-20 10:06:00,71.6,68.2,29.88,West,270,1.6,3.1,89,0.00,,,0.00,WUHU216HW,2013-09-20 15:06:00,
2013-09-20 10:11:00,71.8,68.0,29.88,SE,135,0.2,1.6,88,0.00,,,0.00,WUHU216HW,2013-09-20 15:11:00,
2013-09-20 10:17:00,72.2,68.4,29.88,South,180,2.9,2.9,88,0.00,,,0.00,WUHU216HW,2013-09-20 15:17:00,
2013-09-20 10:22:00,72.4,68.6,29.88,South,180,0.8,2.9,88,0.00,,,0.00,WUHU216HW,2013-09-20 15:22:00,
2013-09-20 10:27:00,72.4,68.6,29.88,South,180,2.5,2.9,88,0.00,,,0.00,WUHU216HW,2013-09-20 15:27:00,
2013-09-20 10:32:00,72.4,68.6,29.88,SSE,158,1.8,3.4,88,0.00,,,0.00,WUHU216HW,2013-09-20 15:32:00,
2013-09-20 10:37:00,72.7,68.9,29.87,SSW,203,0.9,3.4,88,0.00,,,0.00,WUHU216HW,2013-09-20 15:37:00,
2013-09-20 10:42:00,72.7,68.9,29.87,South,169,0.8,1.8,88,0.00,,,0.00,WUHU216HW,2013-09-20 15:42:00,
2013-09-20 10:47:00,73.3,69.8,29.87,SSW,203,1.8,2.2,89,0.00,,,0.00,WUHU216HW,2013-09-20 15:47:00,
2013-09-20 10:52:00,73.6,70.2,29.88,SSE,158,3.4,3.4,89,0.00,,,0.00,WUHU216HW,2013-09-20 15:52:00,
2013-09-20 10:57:00,74.2,70.4,29.87,SSW,203,2.0,3.4,88,0.00,,,0.00,WUHU216HW,2013-09-20 15:57:00,
2013-09-20 11:02:00,74.3,70.3,29.87,SSE,158,1.6,2.5,87,0.00,,,0.00,WUHU216HW,2013-09-20 16:02:00,
2013-09-20 11:07:00,74.5,70.5,29.87,South,181,2.7,3.8,87,0.00,,,0.00,WUHU216HW,2013-09-20 16:07:00,
2013-09-20 11:12:00,74.7,70.3,29.87,SE,135,1.8,4.0,86,0.00,,,0.00,WUHU216HW,2013-09-20 16:12:00,
2013-09-20 11:17:00,75.1,70.7,29.87,South,180,3.4,4.5,86,0.00,,,0.00,WUHU216HW,2013-09-20 16:17:00,
2013-09-20 11:22:00,75.4,70.7,29.87,WNW,290,1.7,4.5,85,0.00,,,0.00,WUHU216HW,2013-09-20 16:22:00,
2013-09-20 11:27:00,75.8,70.7,29.87,South,181,1.4,4.5,84,0.00,,,0.00,WUHU216HW,2013-09-20 16:27:00,
2013-09-20 11:32:00,75.8,70.7,29.87,SE,135,1.8,4.5,84,0.00,,,0.00,WUHU216HW,2013-09-20 16:32:00,
2013-09-20 11:37:00,75.8,70.3,29.87,South,180,1.3,4.3,83,0.00,,,0.00,WUHU216HW,2013-09-20 16:37:00,
2013-09-20 11:42:00,75.8,70.3,29.86,SSE,158,1.6,4.3,83,0.00,,,0.00,WUHU216HW,2013-09-20 16:42:00,
2013-09-20 11:47:00,76.0,70.1,29.86,NNW,338,0.4,2.5,82,0.00,,,0.00,WUHU216HW,2013-09-20 16:47:00,
2013-09-20 11:52:00,76.1,70.3,29.86,WSW,248,2.5,2.5,82,0.00,,,0.00,WUHU216HW,2013-09-20 16:52:00,
2013-09-20 11:57:00,76.5,70.6,29.86,SE,135,2.5,2.5,82,0.00,,,0.00,WUHU216HW,2013-09-20 16:57:00,
2013-09-20 12:02:00,76.7,70.4,29.86,WNW,289,1.0,4.7,81,0.00,,,0.00,WUHU216HW,2013-09-20 17:02:00,
2013-09-20 12:07:00,76.7,70.4,29.86,WSW,256,1.4,4.7,81,0.00,,,0.00,WUHU216HW,2013-09-20 17:07:00,
2013-09-20 12:12:00,76.9,70.6,29.85,South,174,1.9,3.4,81,0.00,,,0.00,WUHU216HW,2013-09-20 17:12:00,
2013-09-20 12:17:00,77.0,70.7,29.86,South,183,2.4,3.4,81,0.00,,,0.00,WUHU216HW,2013-09-20 17:17:00,
2013-09-20 12:22:00,77.0,70.4,29.85,SW,226,1.9,3.8,80,0.00,,,0.00,WUHU216HW,2013-09-20 17:22:00,
2013-09-20 12:27:00,77.0,70.4,29.85,South,180,1.1,3.8,80,0.00,,,0.00,WUHU216HW,2013-09-20 17:27:00,
2013-09-20 12:32:00,77.4,70.7,29.85,SW,225,5.4,5.4,80,0.00,,,0.00,WUHU216HW,2013-09-20 17:32:00,
2013-09-20 12:37:00,77.8,70.8,29.85,SW,232,1.8,5.4,79,0.00,,,0.00,WUHU216HW,2013-09-20 17:37:00,
2013-09-20 12:42:00,78.1,71.1,29.85,SSW,203,0.9,5.4,79,0.00,,,0.00,WUHU216HW,2013-09-20 17:42:00,
2013-09-20 12:47:00,78.5,71.0,29.85,South,177,2.8,4.7,78,0.00,,,0.00,WUHU216HW,2013-09-20 17:47:00,
2013-09-20 12:52:00,78.5,70.7,29.85,SSW,203,5.1,5.1,77,0.00,,,0.00,WUHU216HW,2013-09-20 17:52:00,
2013-09-20 12:57:00,78.3,70.1,29.85,SSW,199,2.9,5.1,76,0.00,,,0.00,WUHU216HW,2013-09-20 17:57:00,
2013-09-20 13:02:00,78.1,69.9,29.85,SSW,203,2.7,5.1,76,0.00,,,0.00,WUHU216HW,2013-09-20 18:02:00,
2013-09-20 13:07:00,77.8,69.6,29.84,South,191,1.7,3.4,76,0.00,,,0.00,WUHU216HW,2013-09-20 18:07:00,
2013-09-20 13:12:00,77.4,69.2,29.84,North,0,0.9,2.7,76,0.00,,,0.00,WUHU216HW,2013-09-20 18:12:00,
2013-09-20 13:17:00,77.2,69.0,29.84,South,183,0.9,2.5,76,0.00,,,0.00,WUHU216HW,2013-09-20 18:17:00,
2013-09-20 13:22:00,77.0,68.9,29.84,East,90,2.5,2.7,76,0.00,,,0.00,WUHU216HW,2013-09-20 18:22:00,
2013-09-20 13:27:00,76.5,68.8,29.84,North,0,1.1,2.9,77,0.00,,,0.00,WUHU216HW,2013-09-20 18:27:00,
2013-09-20 13:32:00,76.0,68.7,29.84,NW,309,1.9,2.9,78,0.00,,,0.00,WUHU216HW,2013-09-20 18:32:00,
2013-09-20 13:37:00,75.2,68.8,29.84,NNW,328,1.0,2.9,80,0.00,,,0.00,WUHU216HW,2013-09-20 18:37:00,
2013-09-20 13:42:00,74.3,68.2,29.84,West,270,1.6,4.0,81,0.00,,,0.00,WUHU216HW,2013-09-20 18:42:00,
2013-09-20 13:47:00,73.4,67.7,29.84,North,5,1.2,4.0,82,0.00,,,0.00,WUHU216HW,2013-09-20 18:47:00,
2013-09-20 13:52:00,72.7,67.2,29.84,WNW,296,1.3,2.7,83,0.00,,,0.00,WUHU216HW,2013-09-20 18:52:00,
2013-09-20 13:57:00,72.4,66.9,29.84,SSE,158,1.1,2.0,83,0.00,,,0.00,WUHU216HW,2013-09-20 18:57:00,
2013-09-20 14:02:00,72.2,67.1,29.83,NW,315,1.3,2.2,84,0.00,,,0.00,WUHU216HW,2013-09-20 19:02:00,
2013-09-20 14:07:00,72.0,66.9,29.83,West,277,0.4,2.2,84,0.00,,,0.00,WUHU216HW,2013-09-20 19:07:00,
2013-09-20 14:12:00,72.2,67.4,29.83,WSW,257,0.8,1.8,85,0.00,,,0.00,WUHU216HW,2013-09-20 19:12:00,
2013-09-20 14:17:00,72.2,67.4,29.82,SSE,165,0.6,1.8,85,0.00,,,0.00,WUHU216HW,2013-09-20 19:17:00,
2013-09-20 14:22:00,72.4,68.0,29.82,SSW,203,2.0,2.0,86,0.00,,,0.00,WUHU216HW,2013-09-20 19:22:00,
2013-09-20 14:27:00,72.5,68.1,29.82,NW,315,0.9,2.0,86,0.00,,,0.00,WUHU216HW,2013-09-20 19:27:00,
2013-09-20 14:32:00,72.7,68.3,29.82,SE,135,1.3,1.8,86,0.00,,,0.00,WUHU216HW,2013-09-20 19:32:00,
2013-09-20 14:37:00,72.7,68.3,29.82,South,185,1.2,2.5,86,0.00,,,0.00,WUHU216HW,2013-09-20 19:37:00,
2013-09-20 14:42:00,72.7,68.3,29.82,South,173,1.3,2.5,86,0.00,,,0.00,WUHU216HW,2013-09-20 19:42:00,
2013-09-20 14:47:00,72.9,68.5,29.82,SSE,167,1.3,2.5,86,0.00,,,0.00,WUHU216HW,2013-09-20 19:47:00,
2013-09-20 14:52:00,72.9,68.5,29.82,South,180,0.9,2.0,86,0.00,,,0.00,WUHU216HW,2013-09-20 19:52:00,
2013-09-20 14:57:00,73.1,69.0,29.82,SSE,167,1.5,2.9,87,0.00,,,0.00,WUHU216HW,2013-09-20 19:57:00,
2013-09-20 15:02:00,73.1,69.3,29.82,South,188,0.7,2.9,88,0.00,,,0.00,WUHU216HW,2013-09-20 20:02:00,
2013-09-20 15:07:00,73.1,69.0,29.82,SSE,149,1.0,2.5,87,0.00,,,0.00,WUHU216HW,2013-09-20 20:07:00,
2013-09-20 15:12:00,73.1,69.0,29.82,SSW,192,1.8,3.4,87,0.00,,,0.00,WUHU216HW,2013-09-20 20:12:00,
2013-09-20 15:17:00,73.1,69.0,29.81,South,180,1.0,3.4,87,0.00,,,0.00,WUHU216HW,2013-09-20 20:17:00,
2013-09-20 15:22:00,73.1,69.0,29.82,SSW,203,1.3,1.8,87,0.00,,,0.00,WUHU216HW,2013-09-20 20:22:00,
2013-09-20 15:27:00,73.3,69.2,29.82,SSW,203,0.5,3.1,87,0.00,,,0.00,WUHU216HW,2013-09-20 20:27:00,
2013-09-20 15:32:00,73.1,69.0,29.82,South,180,2.5,3.1,87,0.00,,,0.00,WUHU216HW,2013-09-20 20:32:00,
2013-09-20 15:37:00,73.1,69.0,29.82,SSW,199,0.5,2.5,87,0.00,,,0.00,WUHU216HW,2013-09-20 20:37:00,
2013-09-20 15:42:00,73.3,69.2,29.82,South,180,2.5,2.9,87,0.00,,,0.00,WUHU216HW,2013-09-20 20:42:00,
2013-09-20 15:47:00,73.3,69.2,29.82,South,182,2.2,2.9,87,0.00,,,0.00,WUHU216HW,2013-09-20 20:47:00,
2013-09-20 15:52:00,73.1,69.0,29.82,South,180,1.1,2.9,87,0.00,,,0.00,WUHU216HW,2013-09-20 20:52:00,
2013-09-20 15:57:00,73.3,69.2,29.81,South,175,0.9,2.2,87,0.00,,,0.00,WUHU216HW,2013-09-20 20:57:00,
2013-09-20 16:02:00,73.3,69.2,29.81,SSW,192,1.4,2.0,87,0.00,,,0.00,WUHU216HW,2013-09-20 21:02:00,
2013-09-20 16:07:00,73.3,69.2,29.81,South,180,0.4,2.0,87,0.00,,,0.00,WUHU216HW,2013-09-20 21:07:00,
2013-09-20 16:12:00,73.1,69.0,29.81,South,184,1.2,2.0,87,0.00,,,0.00,WUHU216HW,2013-09-20 21:12:00,
2013-09-20 16:17:00,73.1,68.7,29.81,WNW,293,1.1,2.0,86,0.00,,,0.00,WUHU216HW,2013-09-20 21:17:00,
2013-09-20 16:22:00,72.7,68.3,29.81,SE,135,1.1,1.1,86,0.00,,,0.00,WUHU216HW,2013-09-20 21:22:00,
2013-09-20 16:27:00,72.7,68.3,29.81,NW,315,0.9,1.8,86,0.00,,,0.00,WUHU216HW,2013-09-20 21:27:00,
2013-09-20 16:32:00,72.4,68.0,29.81,West,275,0.5,1.8,86,0.00,,,0.00,WUHU216HW,2013-09-20 21:32:00,
2013-09-20 16:37:00,72.4,68.0,29.81,WSW,248,0.3,1.6,86,0.00,,,0.00,WUHU216HW,2013-09-20 21:37:00,
2013-09-20 16:42:00,72.4,68.0,29.81,WNW,293,0.2,1.1,86,0.00,,,0.00,WUHU216HW,2013-09-20 21:42:00,
2013-09-20 16:47:00,72.4,68.0,29.81,WNW,293,0.3,1.1,86,0.00,,,0.00,WUHU216HW,2013-09-20 21:47:00,
2013-09-20 16:52:00,72.4,68.0,29.81,North,10,0.3,0.4,86,0.00,,,0.00,WUHU216HW,2013-09-20 21:52:00,
2013-09-20 16:57:00,72.4,68.0,29.81,WNW,293,0.7,1.1,86,0.00,,,0.00,WUHU216HW,2013-09-20 21:57:00,
2013-09-20 17:02:00,72.4,68.0,29.81,WNW,293,0.4,1.1,86,0.00,,,0.00,WUHU216HW,2013-09-20 22:02:00,
2013-09-20 17:07:00,72.4,68.0,29.81,WNW,293,0.0,0.7,86,0.00,,,0.00,WUHU216HW,2013-09-20 22:07:00,
2013-09-20 17:12:00,72.4,68.0,29.81,WSW,248,0.4,0.7,86,0.00,,,0.00,WUHU216HW,2013-09-20 22:12:00,
2013-09-20 17:17:00,72.4,68.0,29.81,West,270,0.0,0.7,86,0.00,,,0.00,WUHU216HW,2013-09-20 22:17:00,
2013-09-20 17:22:00,72.2,67.8,29.81,West,270,0.2,0.2,86,0.00,,,0.00,WUHU216HW,2013-09-20 22:22:00,
2013-09-20 17:27:00,72.4,68.0,29.81,West,270,0.0,0.2,86,0.00,,,0.00,WUHU216HW,2013-09-20 22:27:00,
2013-09-20 17:32:00,72.4,68.0,29.81,SSW,203,0.4,0.4,86,0.00,,,0.00,WUHU216HW,2013-09-20 22:32:00,
2013-09-20 17:37:00,72.2,67.8,29.81,SSW,203,0.7,0.7,86,0.00,,,0.00,WUHU216HW,2013-09-20 22:37:00,
2013-09-20 17:42:00,72.2,67.8,29.81,South,179,0.8,1.6,86,0.00,,,0.00,WUHU216HW,2013-09-20 22:42:00,
2013-09-20 17:47:00,72.2,67.8,29.81,SW,236,0.3,1.6,86,0.00,,,0.00,WUHU216HW,2013-09-20 22:47:00,
2013-09-20 17:52:00,72.0,67.6,29.81,WSW,248,0.0,0.4,86,0.00,,,0.00,WUHU216HW,2013-09-20 22:52:00,
2013-09-20 17:57:00,72.0,67.6,29.81,WSW,240,0.3,0.7,86,0.00,,,0.00,WUHU216HW,2013-09-20 22:57:00,
2013-09-20 18:02:00,72.0,67.6,29.81,SSW,203,0.2,0.7,86,0.00,,,0.00,WUHU216HW,2013-09-20 23:02:00,
2013-09-20 18:07:00,71.8,67.4,29.81,WSW,248,0.6,0.7,86,0.00,,,0.00,WUHU216HW,2013-09-20 23:07:00,
2013-09-20 18:12:00,71.6,66.9,29.81,NW,304,0.6,1.1,85,0.00,,,0.00,WUHU216HW,2013-09-20 23:12:00,
2013-09-20 18:17:00,71.5,66.7,29.81,SSE,168,0.7,1.3,85,0.00,,,0.00,WUHU216HW,2013-09-20 23:17:00,
2013-09-20 18:22:00,71.3,66.5,29.81,West,275,1.0,1.6,85,0.00,,,0.00,WUHU216HW,2013-09-20 23:22:00,
2013-09-20 18:27:00,71.3,66.5,29.81,WNW,293,0.9,1.6,85,0.00,,,0.00,WUHU216HW,2013-09-20 23:27:00,
2013-09-20 18:32:00,71.1,66.3,29.81,West,281,1.7,2.9,85,0.00,,,0.00,WUHU216HW,2013-09-20 23:32:00,
2013-09-20 18:37:00,70.9,66.2,29.81,WSW,248,1.1,2.9,85,0.00,,,0.00,WUHU216HW,2013-09-20 23:37:00,
2013-09-20 18:42:00,70.9,66.2,29.81,WNW,293,0.7,1.1,85,0.00,,,0.00,WUHU216HW,2013-09-20 23:42:00,
2013-09-20 18:47:00,70.6,65.4,29.81,West,273,0.9,2.5,84,0.00,,,0.00,WUHU216HW,2013-09-20 23:47:00,
2013-09-20 18:52:00,70.4,65.3,29.81,NNE,13,0.7,2.5,84,0.00,,,0.00,WUHU216HW,2013-09-20 23:52:00,
2013-09-20 18:57:00,70.0,64.5,29.81,NW,316,1.2,2.5,83,0.00,,,0.00,WUHU216HW,2013-09-20 23:57:00,
2013-09-20 19:02:00,69.7,63.9,29.81,West,270,1.8,2.0,82,0.00,,,0.00,WUHU216HW,2013-09-21 00:02:00,
2013-09-20 19:07:00,69.5,63.7,29.81,West,277,1.0,2.2,82,0.00,,,0.00,WUHU216HW,2013-09-21 00:07:00,
2013-09-20 19:12:00,69.1,63.4,29.82,NNW,327,1.0,2.2,82,0.00,,,0.00,WUHU216HW,2013-09-21 00:12:00,
2013-09-20 19:17:00,68.9,62.9,29.82,NW,315,1.6,2.2,81,0.00,,,0.00,WUHU216HW,2013-09-21 00:17:00,
2013-09-20 19:22:00,68.8,62.7,29.82,North,357,1.0,2.2,81,0.00,,,0.00,WUHU216HW,2013-09-21 00:22:00,
2013-09-20 19:27:00,68.4,62.4,29.83,NW,310,1.0,2.5,81,0.00,,,0.00,WUHU216HW,2013-09-21 00:27:00,
2013-09-20 19:32:00,68.2,62.2,29.83,West,280,1.4,2.5,81,0.00,,,0.00,WUHU216HW,2013-09-21 00:32:00,
2013-09-20 19:37:00,68.0,62.1,29.83,WNW,293,1.1,2.5,81,0.00,,,0.00,WUHU216HW,2013-09-21 00:37:00,
2013-09-20 19:42:00,68.0,62.1,29.83,WNW,293,0.7,2.5,81,0.00,,,0.00,WUHU216HW,2013-09-21 00:42:00,
2013-09-20 19:47:00,67.9,61.9,29.83,West,270,2.0,2.0,81,0.00,,,0.00,WUHU216HW,2013-09-21 00:47:00,
2013-09-20 19:52:00,67.7,61.8,29.83,NW,314,1.1,2.0,81,0.00,,,0.00,WUHU216HW,2013-09-21 00:52:00,
2013-09-20 19:57:00,67.7,61.8,29.83,NNW,341,1.4,2.0,81,0.00,,,0.00,WUHU216HW,2013-09-21 00:57:00,
2013-09-20 20:02:00,67.5,61.6,29.83,WNW,294,1.2,2.0,81,0.00,,,0.00,WUHU216HW,2013-09-21 01:02:00,
2013-09-20 20:07:00,67.3,61.4,29.83,NW,315,1.1,2.0,81,0.00,,,0.00,WUHU216HW,2013-09-21 01:07:00,
2013-09-20 20:12:00,67.1,61.2,29.83,North,359,1.4,2.2,81,0.00,,,0.00,WUHU216HW,2013-09-21 01:12:00,
2013-09-20 20:17:00,67.0,60.7,29.83,NNE,23,1.3,2.2,80,0.00,,,0.00,WUHU216HW,2013-09-21 01:17:00,
2013-09-20 20:22:00,66.8,60.5,29.83,North,351,0.8,1.8,80,0.00,,,0.00,WUHU216HW,2013-09-21 01:22:00,
2013-09-20 20:27:00,66.6,60.3,29.84,NNW,338,1.1,1.8,80,0.00,,,0.00,WUHU216HW,2013-09-21 01:27:00,
2013-09-20 20:32:00,66.6,60.3,29.84,NNW,338,0.7,2.0,80,0.00,,,0.00,WUHU216HW,2013-09-21 01:32:00,
2013-09-20 20:37:00,66.2,59.9,29.84,West,270,1.6,3.4,80,0.00,,,0.00,WUHU216HW,2013-09-21 01:37:00,
2013-09-20 20:42:00,66.1,59.8,29.84,NNW,338,0.4,3.4,80,0.00,,,0.00,WUHU216HW,2013-09-21 01:42:00,
2013-09-20 20:47:00,65.9,59.6,29.84,NW,315,2.0,2.0,80,0.00,,,0.00,WUHU216HW,2013-09-21 01:47:00,
2013-09-20 20:52:00,65.9,59.6,29.84,NNW,338,0.7,2.0,80,0.00,,,0.00,WUHU216HW,2013-09-21 01:52:00,
2013-09-20 20:57:00,65.5,59.2,29.84,NW,315,1.1,2.0,80,0.00,,,0.00,WUHU216HW,2013-09-21 01:57:00,
2013-09-20 21:02:00,65.5,59.2,29.84,West,270,0.4,1.1,80,0.00,,,0.00,WUHU216HW,2013-09-21 02:02:00,
2013-09-20 21:07:00,65.3,59.0,29.84,NE,45,3.1,3.1,80,0.00,,,0.00,WUHU216HW,2013-09-21 02:07:00,
2013-09-20 21:12:00,65.2,58.9,29.84,North,0,2.5,4.0,80,0.00,,,0.00,WUHU216HW,2013-09-21 02:12:00,
2013-09-20 21:17:00,65.2,58.9,29.84,NW,308,1.8,4.0,80,0.00,,,0.00,WUHU216HW,2013-09-21 02:17:00,
2013-09-20 21:22:00,64.8,58.2,29.84,North,352,1.9,4.0,79,0.00,,,0.00,WUHU216HW,2013-09-21 02:22:00,
2013-09-20 21:27:00,64.6,57.6,29.84,NNW,344,2.6,4.7,78,0.00,,,0.00,WUHU216HW,2013-09-21 02:27:00,
2013-09-20 21:32:00,64.4,56.7,29.85,NNE,23,2.9,4.7,76,0.00,,,0.00,WUHU216HW,2013-09-21 02:32:00,
2013-09-20 21:37:00,64.3,56.9,29.85,NNE,23,2.5,3.4,77,0.00,,,0.00,WUHU216HW,2013-09-21 02:37:00,
2013-09-20 21:42:00,63.9,56.5,29.85,North,0,1.1,2.9,77,0.00,,,0.00,WUHU216HW,2013-09-21 02:42:00,
2013-09-20 21:47:00,63.7,56.0,29.85,North,0,2.5,2.5,76,0.00,,,0.00,WUHU216HW,2013-09-21 02:47:00,
2013-09-20 21:52:00,63.7,55.3,29.85,NNE,23,2.2,3.4,74,0.00,,,0.00,WUHU216HW,2013-09-21 02:52:00,
2013-09-20 21:57:00,63.5,55.4,29.85,NNW,340,1.1,3.4,75,0.00,,,0.00,WUHU216HW,2013-09-21 02:57:00,
2013-09-20 22:02:00,63.2,55.1,29.85,NNE,23,1.6,3.4,75,0.00,,,0.00,WUHU216HW,2013-09-21 03:02:00,
2013-09-20 22:07:00,63.2,55.4,29.85,NNW,344,1.0,3.4,76,0.00,,,0.00,WUHU216HW,2013-09-21 03:07:00,
2013-09-20 22:12:00,63.0,55.3,29.85,North,0,1.6,1.8,76,0.00,,,0.00,WUHU216HW,2013-09-21 03:12:00,
2013-09-20 22:17:00,62.8,55.1,29.85,NNW,338,2.5,2.5,76,0.00,,,0.00,WUHU216HW,2013-09-21 03:17:00,
2013-09-20 22:22:00,62.5,54.7,29.85,NNW,348,0.5,3.4,76,0.00,,,0.00,WUHU216HW,2013-09-21 03:22:00,
2013-09-20 22:27:00,62.3,54.9,29.85,NNW,338,1.6,3.4,77,0.00,,,0.00,WUHU216HW,2013-09-21 03:27:00,
2013-09-20 22:32:00,62.1,54.8,29.85,NNW,342,0.9,2.0,77,0.00,,,0.00,WUHU216HW,2013-09-21 03:32:00,
2013-09-20 22:37:00,61.9,54.6,29.86,NNW,346,0.5,2.2,77,0.00,,,0.00,WUHU216HW,2013-09-21 03:37:00,
2013-09-20 22:42:00,61.7,54.5,29.85,North,350,0.6,2.2,77,0.00,,,0.00,WUHU216HW,2013-09-21 03:42:00,
2013-09-20 22:47:00,61.6,54.3,29.85,NNW,338,1.1,2.5,77,0.00,,,0.00,WUHU216HW,2013-09-21 03:47:00,
2013-09-20 22:52:00,61.6,54.6,29.85,NNW,338,1.8,2.5,78,0.00,,,0.00,WUHU216HW,2013-09-21 03:52:00,
2013-09-20 22:57:00,61.4,54.5,29.85,NNW,346,0.8,2.5,78,0.00,,,0.00,WUHU216HW,2013-09-21 03:57:00,
2013-09-20 23:01:00,61.2,54.4,29.86,NNW,341,0.8,1.8,78,0.00,,,0.00,WUHU216HW,2013-09-21 04:01:00,
2013-09-20 23:02:00,61.2,54.4,29.85,NNW,343,0.5,1.8,78,0.00,,,0.00,WUHU216HW,2013-09-21 04:02:00,
2013-09-20 23:07:00,61.0,54.6,29.86,NNW,335,0.7,2.5,79,0.00,,,0.00,WUHU216HW,2013-09-21 04:07:00,
2013-09-20 23:12:00,60.8,54.4,29.85,NNW,339,1.0,2.5,79,0.00,,,0.00,WUHU216HW,2013-09-21 04:12:00,
2013-09-20 23:17:00,60.7,54.2,29.85,NNW,338,0.9,1.8,79,0.00,,,0.00,WUHU216HW,2013-09-21 04:17:00,
2013-09-20 23:22:00,60.5,54.0,29.85,NNW,338,0.7,1.8,79,0.00,,,0.00,WUHU216HW,2013-09-21 04:22:00,
2013-09-20 23:27:00,60.5,54.0,29.85,NNW,338,0.3,1.8,79,0.00,,,0.00,WUHU216HW,2013-09-21 04:27:00,
2013-09-20 23:32:00,60.3,53.8,29.85,NNW,338,0.4,1.1,79,0.00,,,0.00,WUHU216HW,2013-09-21 04:32:00,
2013-09-20 23:36:00,60.1,53.6,29.85,NNW,338,0.5,0.9,79,0.00,,,0.00,WUHU216HW,2013-09-21 04:36:00,
2013-09-20 23:41:00,60.1,54.0,29.86,NW,315,1.1,2.5,80,0.00,,,0.00,WUHU216HW,2013-09-21 04:41:00,
2013-09-20 23:46:00,59.8,53.6,29.85,NW,325,1.0,2.5,80,0.00,,,0.00,WUHU216HW,2013-09-21 04:46:00,
2013-09-20 23:51:00,59.8,53.6,29.85,NNW,330,0.4,2.5,80,0.00,,,0.00,WUHU216HW,2013-09-21 04:51:00,
2013-09-20 23:56:00,59.6,53.5,29.85,North,0,0.4,2.5,80,0.00,,,0.00,WUHU216HW,2013-09-21 04:56:00,